Main page
METAR-TAF:

METAR-TAF

Airports :

Lydd, England

Lydd Airport

latitude: 50-57N, longitude: 000-56E, elevation: 3 m

Current weather observation

The report was made 28 minutes ago, at 01:20 UTC
Wind 9 kt from the East/Northeast
Temperature 11°C
Humidity 87%
Pressure 1022 hPa
Visibility: 6000 m

METAR: EGMD 210120Z AUTO 07009KT 6000 NCD 11/09 Q1022

Time: 02:48 (01:48 UTC)

Forecast

The report was made 2 hours and 51 minutes ago, at 22:57 UTC
Forecast valid from 21 at 00 UTC to 21 at 09 UTC
Wind 7 kt from the East
Visibility: 4000 m
Few clouds at a height of 4500 ft
haze
Temporary
from 21 at 00 UTC to 21 at 06 UTC
Visibility: 6000 m
Becoming
from 21 at 06 UTC to 21 at 09 UTC
Visibility 10 km or more

TAF: EGMD 202257Z 2100/2109 08007KT 4000 HZ FEW045 TEMPO 2100/2106 6000 NSW BECMG 2106/2109 9999 NSW

Weather observations and forecasts of more than 4000 airports (METAR and TAF reports).

The available stations are represented by yellow and red dots on the map.

Hover mouse over dot to see the name of the station.

Then click to see weather observations and forecasts.

To change the map : click on the green buttons with a black cross to zoom in, on the green button with a dash to zoom out, or on the green arrows for adjacent maps.


METAR-TAF: